Flag for USA

Past Weather in 39°14'14"N, 84°46'59"W, USA — Yesterday and Last 2 Weeks

Currently: 42 °F. Fog. (Weather station: Cincinnati Municipal Airport Lunken Field, USA). See more current weather

Past Weather in 39°14'14"N, 84°46'59"W — Graph

°F

39°14'14"N, 84°46'59"W Temperature Yesterday

Maximum temperature yesterday: 53 °F (at 3:53 pm)
Minimum temperature yesterday: 40 °F (at 11:24 pm)
Average temperature yesterday: 46 °F

High & Low Weather Summary for the Past Weeks

 TemperatureHumidityPressure
High73 °F (Feb 26, 3:53 pm)100% (Feb 23, 6:35 am)30.58 "Hg (Feb 23, 6:35 am)
Low16 °F (Feb 18, 2:53 am)24% (Feb 29, 4:53 pm)29.37 "Hg (Feb 28, 3:53 am)
Average42 °F69%30.02 "Hg
* Reported Feb 17 4:53 am — Mar 3 4:53 am, 39°14'14"N, 84°46'59"W. Weather by CustomWeather, © 2024

Note: Actual official high and low records may vary slightly from our data, if they occured in-between our weather recording intervals... More about our weather records

39°14'14"N, 84°46'59"W Weather History for the Previous 24 Hours

Scroll right to see more
 ConditionsComfort  
Time TempWeatherWind HumidityBarometerVisibility
4:53 am
Sun, Mar 3
42 °FFog.No wind96%30.14 "Hg0 mi
3:53 am42 °FFog.No wind96%30.14 "Hg0 mi
3:11 am41 °FFog.No wind100%30.14 "Hg0 mi
2:23 am39 °FFog.No wind100%30.15 "Hg1 mi
1:53 am39 °FFog.No wind100%30.15 "Hg0 mi
1:27 am40 °FFog.No wind97%30.15 "Hg0 mi
1:03 am38 °FFog.No wind100%30.15 "Hg0 mi
12:53 am39 °FFog.No wind100%30.15 "Hg0 mi
11:53 pm
Sat, Mar 2
41 °FFog.No wind96%30.14 "Hg0 mi
11:24 pm40 °FFog.No wind100%30.14 "Hg0 mi
11:15 pm42 °FFog.No wind96%30.14 "Hg0 mi
11:00 pm44 °FFog.No wind96%30.13 "Hg0 mi
9:53 pm46 °FOvercast.No wind93%30.14 "Hg7 mi
8:53 pm47 °FMostly cloudy.No wind93%30.14 "Hg7 mi
7:53 pm49 °FOvercast.No wind93%30.14 "Hg9 mi
7:03 pm51 °FMostly cloudy.No wind83%30.13 "Hg10 mi
6:53 pm51 °FMostly cloudy.No wind83%30.13 "Hg10 mi
6:30 pm52 °FMostly cloudy.No wind80%30.13 "Hg10 mi
5:53 pm53 °FMore clouds than sun.No wind74%30.14 "Hg10 mi
4:53 pm53 °FOvercast.3 mph77%30.13 "Hg10 mi
3:53 pm53 °FOvercast.3 mph74%30.14 "Hg10 mi
2:53 pm52 °FOvercast.No wind77%30.14 "Hg10 mi
1:53 pm51 °FOvercast.3 mph77%30.16 "Hg10 mi
12:53 pm50 °FOvercast.No wind77%30.16 "Hg10 mi
11:53 am49 °FOvercast.No wind84%30.18 "Hg7 mi
11:11 am49 °FMostly cloudy.No wind84%30.18 "Hg7 mi
10:53 am49 °FMore clouds than sun.No wind84%30.19 "Hg4 mi
10:34 am48 °FFog.No wind89%30.19 "Hg3 mi
10:23 am47 °FFog.No wind93%30.18 "Hg2 mi
10:09 am47 °FFog.No wind93%30.19 "Hg2 mi
9:41 am45 °FFog.No wind97%30.19 "Hg2 mi
9:12 am45 °FFog.No wind97%30.19 "Hg2 mi
8:33 am45 °FFog.No wind97%30.17 "Hg1 mi
8:20 am44 °FFog.No wind100%30.17 "Hg1 mi
7:53 am44 °FFog.No wind96%30.17 "Hg0 mi
7:36 am43 °FFog.No wind100%30.16 "Hg0 mi
7:09 am43 °FFog.No wind97%30.15 "Hg1 mi
6:53 am43 °FFog.No wind97%30.15 "Hg1 mi
Weather by CustomWeather, © 2024

See weather overview